sensor_id;sensor_type;location;lat;lon;timestamp;pressure;altitude;pressure_sealevel;temperature;humidity
73551;BME280;61816;53.582;10.096;2023-02-28T00:02:16;54438.50;;;-144.73;63.88
73551;BME280;61816;53.582;10.096;2023-02-28T00:04:43;54440.53;;;-144.73;64.30
73551;BME280;61816;53.582;10.096;2023-02-28T00:07:08;54420.00;;;-144.73;64.40
73551;BME280;61816;53.582;10.096;2023-02-28T00:09:33;54448.75;;;-144.73;64.26
73551;BME280;61816;53.582;10.096;2023-02-28T00:11:59;54456.97;;;-144.73;64.38
73551;BME280;61816;53.582;10.096;2023-02-28T00:14:24;54436.44;;;-144.73;64.21
73551;BME280;61816;53.582;10.096;2023-02-28T00:16:49;54440.53;;;-144.73;63.75
73551;BME280;61816;53.582;10.096;2023-02-28T00:19:15;54456.97;;;-144.73;63.76
73551;BME280;61816;53.582;10.096;2023-02-28T00:21:40;54424.13;;;-144.73;63.48
73551;BME280;61816;53.582;10.096;2023-02-28T00:24:06;54415.91;;;-144.73;63.14
73551;BME280;61816;53.582;10.096;2023-02-28T00:26:32;54465.16;;;-144.73;63.26
73551;BME280;61816;53.582;10.096;2023-02-28T00:28:57;54481.59;;;-144.73;63.39
73551;BME280;61816;53.582;10.096;2023-02-28T00:31:23;54442.59;;;-144.73;63.22
73551;BME280;61816;53.582;10.096;2023-02-28T00:33:48;54448.75;;;-144.73;63.33
73551;BME280;61816;53.582;10.096;2023-02-28T00:36:14;54452.84;;;-144.73;62.80
73551;BME280;61816;53.582;10.096;2023-02-28T00:38:40;54420.00;;;-144.73;63.12
73551;BME280;61816;53.582;10.096;2023-02-28T00:41:06;54432.31;;;-144.73;63.68
73551;BME280;61816;53.582;10.096;2023-02-28T00:43:34;54428.22;;;-144.73;64.38
73551;BME280;61816;53.582;10.096;2023-02-28T00:46:00;54448.75;;;-144.73;63.99
73551;BME280;61816;53.582;10.096;2023-02-28T00:48:26;54444.66;;;-144.73;63.50
73551;BME280;61816;53.582;10.096;2023-02-28T00:50:51;54456.97;;;-144.73;63.38
73551;BME280;61816;53.582;10.096;2023-02-28T00:53:16;54465.16;;;-144.73;63.57
73551;BME280;61816;53.582;10.096;2023-02-28T00:55:42;54446.69;;;-144.73;63.46
73551;BME280;61816;53.582;10.096;2023-02-28T00:58:07;54428.22;;;-144.73;63.17
73551;BME280;61816;53.582;10.096;2023-02-28T01:00:32;54432.31;;;-144.73;63.09
73551;BME280;61816;53.582;10.096;2023-02-28T01:02:58;54461.06;;;-144.73;63.48
73551;BME280;61816;53.582;10.096;2023-02-28T01:05:23;54436.44;;;-144.73;63.88
73551;BME280;61816;53.582;10.096;2023-02-28T01:07:48;54424.13;;;-144.73;63.75
73551;BME280;61816;53.582;10.096;2023-02-28T01:10:14;54456.97;;;-144.73;64.19
73551;BME280;61816;53.582;10.096;2023-02-28T01:12:39;54420.00;;;-144.73;65.14
73551;BME280;61816;53.582;10.096;2023-02-28T01:15:05;54415.91;;;-144.73;65.31
73551;BME280;61816;53.582;10.096;2023-02-28T01:17:30;54428.22;;;-144.73;65.69
73551;BME280;61816;53.582;10.096;2023-02-28T01:19:56;54415.91;;;-144.73;66.34
73551;BME280;61816;53.582;10.096;2023-02-28T01:22:21;54442.59;;;-144.73;69.30
73551;BME280;61816;53.582;10.096;2023-02-28T01:24:47;54428.22;;;-144.73;69.53
73551;BME280;61816;53.582;10.096;2023-02-28T01:27:13;54444.66;;;-144.73;68.59
73551;BME280;61816;53.582;10.096;2023-02-28T01:29:38;54411.81;;;-144.73;68.17
73551;BME280;61816;53.582;10.096;2023-02-28T01:32:04;54420.00;;;-144.73;68.12
73551;BME280;61816;53.582;10.096;2023-02-28T01:34:29;54378.97;;;-144.73;68.00
73551;BME280;61816;53.582;10.096;2023-02-28T01:36:55;54444.66;;;-144.73;68.20
73551;BME280;61816;53.582;10.096;2023-02-28T02:09:14;54407.69;;;-144.73;70.97
73551;BME280;61816;53.582;10.096;2023-02-28T02:11:42;54424.13;;;-144.73;71.16
73551;BME280;61816;53.582;10.096;2023-02-28T02:17:15;54473.38;;;-144.73;71.70
73551;BME280;61816;53.582;10.096;2023-02-28T02:23:30;54424.13;;;-144.73;72.96
73551;BME280;61816;53.582;10.096;2023-02-28T02:26:37;54428.22;;;-144.73;72.89
73551;BME280;61816;53.582;10.096;2023-02-28T02:31:58;54407.69;;;-144.73;72.48
73551;BME280;61816;53.582;10.096;2023-02-28T02:34:45;54444.66;;;-144.73;71.80
73551;BME280;61816;53.582;10.096;2023-02-28T02:39:54;54428.22;;;-144.73;71.48
73551;BME280;61816;53.582;10.096;2023-02-28T02:42:35;54407.69;;;-144.73;71.14
73551;BME280;61816;53.582;10.096;2023-02-28T02:45:12;54426.16;;;-144.73;72.20
73551;BME280;61816;53.582;10.096;2023-02-28T02:47:40;54399.50;;;-144.73;73.07
73551;BME280;61816;53.582;10.096;2023-02-28T02:50:10;54440.53;;;-144.73;74.60
73551;BME280;61816;53.582;10.096;2023-02-28T02:52:40;54426.16;;;-144.73;77.09
73551;BME280;61816;53.582;10.096;2023-02-28T02:55:08;54465.16;;;-144.73;77.48
73551;BME280;61816;53.582;10.096;2023-02-28T02:57:43;54424.13;;;-144.73;78.25
73551;BME280;61816;53.582;10.096;2023-02-28T03:00:12;54407.69;;;-144.73;79.11
73551;BME280;61816;53.582;10.096;2023-02-28T03:02:38;54407.69;;;-144.73;79.90
73551;BME280;61816;53.582;10.096;2023-02-28T03:05:19;54436.44;;;-144.73;79.85
73551;BME280;61816;53.582;10.096;2023-02-28T03:07:47;54411.81;;;-144.73;80.27
73551;BME280;61816;53.582;10.096;2023-02-28T03:10:30;54407.69;;;-144.73;81.77
73551;BME280;61816;53.582;10.096;2023-02-28T03:13:19;54407.69;;;-144.73;82.70
73551;BME280;61816;53.582;10.096;2023-02-28T03:18:41;54399.50;;;-144.73;81.92
73551;BME280;61816;53.582;10.096;2023-02-28T03:21:19;54448.75;;;-144.73;80.67
73551;BME280;61816;53.582;10.096;2023-02-28T03:24:16;54436.44;;;-144.73;79.87
73551;BME280;61816;53.582;10.096;2023-02-28T03:26:46;54415.91;;;-144.73;78.55
73551;BME280;61816;53.582;10.096;2023-02-28T03:29:28;54424.13;;;-144.73;79.79
73551;BME280;61816;53.582;10.096;2023-02-28T03:32:08;54415.91;;;-144.73;79.57
73551;BME280;61816;53.582;10.096;2023-02-28T03:34:46;54415.91;;;-144.73;79.98
73551;BME280;61816;53.582;10.096;2023-02-28T03:37:19;54430.28;;;-144.73;79.96
73551;BME280;61816;53.582;10.096;2023-02-28T03:39:54;54438.50;;;-144.73;80.10
73551;BME280;61816;53.582;10.096;2023-02-28T03:42:25;54411.81;;;-144.73;81.56
73551;BME280;61816;53.582;10.096;2023-02-28T03:44:58;54411.81;;;-144.73;81.00
73551;BME280;61816;53.582;10.096;2023-02-28T03:47:30;54442.59;;;-144.73;80.56
73551;BME280;61816;53.582;10.096;2023-02-28T03:50:00;54420.00;;;-144.73;80.42
73551;BME280;61816;53.582;10.096;2023-02-28T03:52:28;54415.91;;;-144.73;80.59
73551;BME280;61816;53.582;10.096;2023-02-28T03:55:00;54448.75;;;-144.73;81.21
73551;BME280;61816;53.582;10.096;2023-02-28T03:57:37;54461.06;;;-144.73;80.57
73551;BME280;61816;53.582;10.096;2023-02-28T04:00:14;54448.75;;;-144.73;80.89
73551;BME280;61816;53.582;10.096;2023-02-28T04:02:41;54424.13;;;-144.73;82.33
73551;BME280;61816;53.582;10.096;2023-02-28T04:05:07;54428.22;;;-144.73;83.20
73551;BME280;61816;53.582;10.096;2023-02-28T04:07:33;54407.69;;;-144.73;83.39
73551;BME280;61816;53.582;10.096;2023-02-28T04:09:58;54436.44;;;-144.73;83.19
73551;BME280;61816;53.582;10.096;2023-02-28T04:12:24;54407.69;;;-144.73;82.98
73551;BME280;61816;53.582;10.096;2023-02-28T04:14:50;54391.28;;;-144.73;83.11
73551;BME280;61816;53.582;10.096;2023-02-28T04:17:16;54411.81;;;-144.73;83.63
73551;BME280;61816;53.582;10.096;2023-02-28T04:19:41;54432.31;;;-144.73;83.47
73551;BME280;61816;53.582;10.096;2023-02-28T04:22:08;54391.28;;;-144.73;83.23
73551;BME280;61816;53.582;10.096;2023-02-28T04:24:34;54409.75;;;-144.73;82.98
73551;BME280;61816;53.582;10.096;2023-02-28T04:26:59;54444.66;;;-144.73;83.58
73551;BME280;61816;53.582;10.096;2023-02-28T04:29:30;54383.06;;;-144.73;83.15
73551;BME280;61816;53.582;10.096;2023-02-28T04:31:56;54415.91;;;-144.73;83.91
73551;BME280;61816;53.582;10.096;2023-02-28T04:34:26;54407.69;;;-144.73;83.20
73551;BME280;61816;53.582;10.096;2023-02-28T04:36:52;54411.81;;;-144.73;84.67
73551;BME280;61816;53.582;10.096;2023-02-28T04:39:20;54438.50;;;-144.73;84.65
73551;BME280;61816;53.582;10.096;2023-02-28T04:41:46;54387.19;;;-144.73;84.46
73551;BME280;61816;53.582;10.096;2023-02-28T04:44:12;54424.13;;;-144.73;84.85
73551;BME280;61816;53.582;10.096;2023-02-28T04:46:38;54440.53;;;-144.73;84.77
73551;BME280;61816;53.582;10.096;2023-02-28T04:49:03;54417.97;;;-144.73;84.67
73551;BME280;61816;53.582;10.096;2023-02-28T04:51:28;54407.69;;;-144.73;84.69
73551;BME280;61816;53.582;10.096;2023-02-28T04:53:54;54411.81;;;-144.73;85.75
73551;BME280;61816;53.582;10.096;2023-02-28T04:56:20;54436.44;;;-144.73;86.12
73551;BME280;61816;53.582;10.096;2023-02-28T04:58:45;54428.22;;;-144.73;86.31
73551;BME280;61816;53.582;10.096;2023-02-28T05:01:29;54424.13;;;-144.73;85.80
73551;BME280;61816;53.582;10.096;2023-02-28T05:03:56;54446.69;;;-144.73;85.41
73551;BME280;61816;53.582;10.096;2023-02-28T05:06:24;54415.91;;;-144.73;85.56
73551;BME280;61816;53.582;10.096;2023-02-28T05:08:50;54432.31;;;-144.73;86.08
73551;BME280;61816;53.582;10.096;2023-02-28T05:11:20;54413.84;;;-144.73;86.35
73551;BME280;61816;53.582;10.096;2023-02-28T05:13:46;54440.53;;;-144.73;86.01
73551;BME280;61816;53.582;10.096;2023-02-28T05:16:12;54407.69;;;-144.73;86.31
73551;BME280;61816;53.582;10.096;2023-02-28T05:18:37;54436.44;;;-144.73;88.15
73551;BME280;61816;53.582;10.096;2023-02-28T05:21:03;54413.84;;;-144.73;88.21
73551;BME280;61816;53.582;10.096;2023-02-28T05:23:29;54391.28;;;-144.73;88.91
73551;BME280;61816;53.582;10.096;2023-02-28T05:25:54;54428.22;;;-144.73;88.71
73551;BME280;61816;53.582;10.096;2023-02-28T05:28:20;54417.97;;;-144.73;87.89
73551;BME280;61816;53.582;10.096;2023-02-28T05:30:46;54407.69;;;-144.73;88.59
73551;BME280;61816;53.582;10.096;2023-02-28T05:33:12;54444.66;;;-144.73;88.99
73551;BME280;61816;53.582;10.096;2023-02-28T05:35:39;54440.53;;;-144.73;89.17
73551;BME280;61816;53.582;10.096;2023-02-28T05:38:05;54407.69;;;-144.73;89.71
73551;BME280;61816;53.582;10.096;2023-02-28T05:40:30;54420.00;;;-144.73;89.41
73551;BME280;61816;53.582;10.096;2023-02-28T05:42:55;54411.81;;;-144.73;89.29
73551;BME280;61816;53.582;10.096;2023-02-28T05:45:21;54407.69;;;-144.73;88.72
73551;BME280;61816;53.582;10.096;2023-02-28T05:47:46;54387.19;;;-144.73;88.91
73551;BME280;61816;53.582;10.096;2023-02-28T05:50:11;54420.00;;;-144.73;88.77
73551;BME280;61816;53.582;10.096;2023-02-28T05:52:37;54420.00;;;-144.73;90.12
73551;BME280;61816;53.582;10.096;2023-02-28T05:55:03;54407.69;;;-144.73;91.20
73551;BME280;61816;53.582;10.096;2023-02-28T05:57:29;54387.19;;;-144.73;89.66
73551;BME280;61816;53.582;10.096;2023-02-28T05:59:55;54448.75;;;-144.73;89.08
73551;BME280;61816;53.582;10.096;2023-02-28T06:02:20;54432.31;;;-144.73;88.56
73551;BME280;61816;53.582;10.096;2023-02-28T06:04:45;54444.66;;;-144.73;88.14
73551;BME280;61816;53.582;10.096;2023-02-28T06:07:11;54395.38;;;-144.73;88.28
73551;BME280;61816;53.582;10.096;2023-02-28T06:09:37;54428.22;;;-144.73;88.76
73551;BME280;61816;53.582;10.096;2023-02-28T06:12:04;54456.97;;;-144.73;88.65
73551;BME280;61816;53.582;10.096;2023-02-28T06:14:35;54411.81;;;-144.73;88.03
73551;BME280;61816;53.582;10.096;2023-02-28T06:17:02;54420.00;;;-144.73;86.90
73551;BME280;61816;53.582;10.096;2023-02-28T06:19:28;54374.84;;;-144.73;87.08
73551;BME280;61816;53.582;10.096;2023-02-28T06:21:55;54424.13;;;-144.73;87.91
73551;BME280;61816;53.582;10.096;2023-02-28T06:24:23;54448.75;;;-144.73;87.75
73551;BME280;61816;53.582;10.096;2023-02-28T06:26:49;54415.91;;;-144.73;87.58
73551;BME280;61816;53.582;10.096;2023-02-28T06:29:15;54411.81;;;-144.73;87.84
73551;BME280;61816;53.582;10.096;2023-02-28T06:31:49;54432.31;;;-144.73;87.74
73551;BME280;61816;53.582;10.096;2023-02-28T06:34:16;54381.00;;;-144.73;88.19
73551;BME280;61816;53.582;10.096;2023-02-28T06:36:42;54420.00;;;-144.73;89.48
73551;BME280;61816;53.582;10.096;2023-02-28T06:39:08;54411.81;;;-144.73;89.32
73551;BME280;61816;53.582;10.096;2023-02-28T06:41:34;54420.00;;;-144.73;89.21
73551;BME280;61816;53.582;10.096;2023-02-28T06:44:16;54420.00;;;-144.73;90.26
73551;BME280;61816;53.582;10.096;2023-02-28T06:46:43;54383.06;;;-144.73;90.40
73551;BME280;61816;53.582;10.096;2023-02-28T06:49:10;54374.84;;;-144.73;89.88
73551;BME280;61816;53.582;10.096;2023-02-28T06:51:42;54436.44;;;-144.73;89.29
73551;BME280;61816;53.582;10.096;2023-02-28T06:54:10;54350.22;;;-144.73;89.81
73551;BME280;61816;53.582;10.096;2023-02-28T06:56:36;54383.06;;;-144.73;89.94
73551;BME280;61816;53.582;10.096;2023-02-28T06:59:05;54415.91;;;-144.73;90.77
73551;BME280;61816;53.582;10.096;2023-02-28T07:01:31;54407.69;;;-144.73;90.37
73551;BME280;61816;53.582;10.096;2023-02-28T07:04:00;54428.22;;;-144.73;90.59
73551;BME280;61816;53.582;10.096;2023-02-28T07:06:25;54407.69;;;-144.73;90.70
73551;BME280;61816;53.582;10.096;2023-02-28T07:08:52;54407.69;;;-144.73;91.05
73551;BME280;61816;53.582;10.096;2023-02-28T07:11:19;54424.13;;;-144.73;90.98
73551;BME280;61816;53.582;10.096;2023-02-28T07:13:45;54391.28;;;-144.73;90.05
73551;BME280;61816;53.582;10.096;2023-02-28T07:16:12;54393.34;;;-144.73;90.22
73551;BME280;61816;53.582;10.096;2023-02-28T07:18:38;54432.31;;;-144.73;90.12
73551;BME280;61816;53.582;10.096;2023-02-28T07:21:06;54469.28;;;-144.73;89.13
73551;BME280;61816;53.582;10.096;2023-02-28T07:23:32;54432.31;;;-144.73;88.86
73551;BME280;61816;53.582;10.096;2023-02-28T07:25:58;54407.69;;;-144.73;88.49
73551;BME280;61816;53.582;10.096;2023-02-28T07:28:24;54452.84;;;-144.73;87.50
73551;BME280;61816;53.582;10.096;2023-02-28T07:30:49;54436.44;;;-144.73;88.26
73551;BME280;61816;53.582;10.096;2023-02-28T07:33:15;54407.69;;;-144.73;88.23
73551;BME280;61816;53.582;10.096;2023-02-28T07:35:40;54399.50;;;-144.73;87.85
73551;BME280;61816;53.582;10.096;2023-02-28T07:38:06;54415.91;;;-144.73;87.61
73551;BME280;61816;53.582;10.096;2023-02-28T07:40:33;54444.66;;;-144.73;86.36
73551;BME280;61816;53.582;10.096;2023-02-28T07:43:00;54415.91;;;-144.73;87.75
73551;BME280;61816;53.582;10.096;2023-02-28T07:45:26;54440.53;;;-144.73;87.08
73551;BME280;61816;53.582;10.096;2023-02-28T07:47:51;54444.66;;;-144.73;86.51
73551;BME280;61816;53.582;10.096;2023-02-28T07:50:17;54415.91;;;-144.73;85.56
73551;BME280;61816;53.582;10.096;2023-02-28T07:52:42;54424.13;;;-144.73;87.03
73551;BME280;61816;53.582;10.096;2023-02-28T07:55:09;54444.66;;;-144.73;86.23
73551;BME280;61816;53.582;10.096;2023-02-28T07:57:35;54420.00;;;-144.73;87.12
73551;BME280;61816;53.582;10.096;2023-02-28T08:00:02;54383.06;;;-144.73;85.45
73551;BME280;61816;53.582;10.096;2023-02-28T08:02:28;54420.00;;;-144.73;85.43
73551;BME280;61816;53.582;10.096;2023-02-28T08:04:53;54448.75;;;-144.73;85.08
73551;BME280;61816;53.582;10.096;2023-02-28T08:07:19;54469.28;;;-144.73;84.39
73551;BME280;61816;53.582;10.096;2023-02-28T08:09:44;54381.00;;;-144.73;83.65
73551;BME280;61816;53.582;10.096;2023-02-28T08:12:10;54399.50;;;-144.73;83.69
73551;BME280;61816;53.582;10.096;2023-02-28T08:14:37;54399.50;;;-144.73;83.17
73551;BME280;61816;53.582;10.096;2023-02-28T08:17:03;54407.69;;;-144.73;82.59
73551;BME280;61816;53.582;10.096;2023-02-28T08:19:29;54407.69;;;-144.73;82.13
73551;BME280;61816;53.582;10.096;2023-02-28T08:21:55;54452.84;;;-144.73;81.70
73551;BME280;61816;53.582;10.096;2023-02-28T08:24:21;54415.91;;;-144.73;80.77
73551;BME280;61816;53.582;10.096;2023-02-28T08:26:46;54424.13;;;-144.73;80.50
73551;BME280;61816;53.582;10.096;2023-02-28T08:29:11;54383.06;;;-144.73;79.50
73551;BME280;61816;53.582;10.096;2023-02-28T08:31:37;54440.53;;;-144.73;78.10
73551;BME280;61816;53.582;10.096;2023-02-28T08:34:10;54407.69;;;-144.73;77.53
73551;BME280;61816;53.582;10.096;2023-02-28T08:36:36;54424.13;;;-144.73;77.44
73551;BME280;61816;53.582;10.096;2023-02-28T08:39:01;54399.50;;;-144.73;77.31
73551;BME280;61816;53.582;10.096;2023-02-28T08:41:27;54424.13;;;-144.73;77.17
73551;BME280;61816;53.582;10.096;2023-02-28T08:43:52;54442.59;;;-144.73;76.60
73551;BME280;61816;53.582;10.096;2023-02-28T08:46:19;54407.69;;;-144.73;75.56
73551;BME280;61816;53.582;10.096;2023-02-28T08:48:46;54444.66;;;-144.73;74.57
73551;BME280;61816;53.582;10.096;2023-02-28T08:51:16;54436.44;;;-144.73;74.29
73551;BME280;61816;53.582;10.096;2023-02-28T08:53:44;54456.97;;;-144.73;73.70
73551;BME280;61816;53.582;10.096;2023-02-28T08:56:12;54395.38;;;-144.73;72.90
73551;BME280;61816;53.582;10.096;2023-02-28T08:58:39;54436.44;;;-144.73;72.80
73551;BME280;61816;53.582;10.096;2023-02-28T09:01:19;54424.13;;;-144.73;71.59
73551;BME280;61816;53.582;10.096;2023-02-28T09:03:46;54452.84;;;-144.73;68.66
73551;BME280;61816;53.582;10.096;2023-02-28T09:06:13;54420.00;;;-144.73;69.17
73551;BME280;61816;53.582;10.096;2023-02-28T09:08:39;54411.81;;;-144.73;69.15
73551;BME280;61816;53.582;10.096;2023-02-28T09:11:05;54465.16;;;-144.73;67.91
73551;BME280;61816;53.582;10.096;2023-02-28T09:13:31;54444.66;;;-144.73;66.91
73551;BME280;61816;53.582;10.096;2023-02-28T09:16:02;54436.44;;;-144.73;66.47
73551;BME280;61816;53.582;10.096;2023-02-28T09:18:29;54426.16;;;-144.73;65.41
73551;BME280;61816;53.582;10.096;2023-02-28T09:20:54;54463.13;;;-144.73;64.24
73551;BME280;61816;53.582;10.096;2023-02-28T09:23:20;54452.84;;;-144.73;63.49
73551;BME280;61816;53.582;10.096;2023-02-28T09:25:51;54448.75;;;-144.73;63.44
73551;BME280;61816;53.582;10.096;2023-02-28T09:28:17;54407.69;;;-144.73;61.78
73551;BME280;61816;53.582;10.096;2023-02-28T09:30:48;54454.91;;;-144.73;61.79
73551;BME280;61816;53.582;10.096;2023-02-28T09:33:15;54428.22;;;-144.73;62.34
73551;BME280;61816;53.582;10.096;2023-02-28T09:35:41;54456.97;;;-144.73;60.38
73551;BME280;61816;53.582;10.096;2023-02-28T09:38:08;54444.66;;;-144.73;60.00
73551;BME280;61816;53.582;10.096;2023-02-28T09:40:48;54424.13;;;-144.73;59.96
73551;BME280;61816;53.582;10.096;2023-02-28T09:43:14;54415.91;;;-144.73;58.60
73551;BME280;61816;53.582;10.096;2023-02-28T09:45:42;54432.31;;;-144.73;59.18
73551;BME280;61816;53.582;10.096;2023-02-28T09:48:17;54434.38;;;-144.73;59.67
73551;BME280;61816;53.582;10.096;2023-02-28T09:50:48;54424.13;;;-144.73;59.11
73551;BME280;61816;53.582;10.096;2023-02-28T09:53:31;54407.69;;;-144.73;58.19
73551;BME280;61816;53.582;10.096;2023-02-28T09:56:12;54420.00;;;-144.73;56.69
73551;BME280;61816;53.582;10.096;2023-02-28T09:58:50;54432.31;;;-144.73;55.16
73551;BME280;61816;53.582;10.096;2023-02-28T10:01:24;54483.66;;;-144.73;55.71
73551;BME280;61816;53.582;10.096;2023-02-28T10:03:56;54448.75;;;-144.73;54.62
73551;BME280;61816;53.582;10.096;2023-02-28T10:06:25;54428.22;;;-144.73;57.22
73551;BME280;61816;53.582;10.096;2023-02-28T10:09:07;54424.13;;;-144.73;56.04
73551;BME280;61816;53.582;10.096;2023-02-28T10:11:39;54448.75;;;-144.73;56.37
73551;BME280;61816;53.582;10.096;2023-02-28T10:14:12;54411.81;;;-144.73;55.92
73551;BME280;61816;53.582;10.096;2023-02-28T10:16:45;54430.28;;;-144.73;55.01
73551;BME280;61816;53.582;10.096;2023-02-28T10:19:20;54424.13;;;-144.73;54.99
73551;BME280;61816;53.582;10.096;2023-02-28T10:21:48;54432.31;;;-144.73;55.07
73551;BME280;61816;53.582;10.096;2023-02-28T10:24:55;54407.69;;;-144.73;53.54
73551;BME280;61816;53.582;10.096;2023-02-28T10:27:29;54415.91;;;-144.73;52.78
73551;BME280;61816;53.582;10.096;2023-02-28T10:29:57;54428.22;;;-144.73;52.39
73551;BME280;61816;53.582;10.096;2023-02-28T10:32:25;54448.75;;;-144.73;52.99
73551;BME280;61816;53.582;10.096;2023-02-28T10:34:58;54442.59;;;-144.73;50.78
73551;BME280;61816;53.582;10.096;2023-02-28T10:37:24;54432.31;;;-144.73;50.03
73551;BME280;61816;53.582;10.096;2023-02-28T10:39:49;54411.81;;;-144.73;50.35
73551;BME280;61816;53.582;10.096;2023-02-28T10:44:47;54444.66;;;-144.73;50.50
73551;BME280;61816;53.582;10.096;2023-02-28T10:47:17;54383.06;;;-144.73;48.39
73551;BME280;61816;53.582;10.096;2023-02-28T10:49:47;54391.28;;;-144.73;49.90
73551;BME280;61816;53.582;10.096;2023-02-28T10:52:33;54415.91;;;-144.73;48.28
73551;BME280;61816;53.582;10.096;2023-02-28T10:55:20;54391.28;;;-144.73;49.83
73551;BME280;61816;53.582;10.096;2023-02-28T10:57:47;54399.50;;;-144.73;49.01
73551;BME280;61816;53.582;10.096;2023-02-28T11:00:19;54407.69;;;-144.73;49.79
73551;BME280;61816;53.582;10.096;2023-02-28T11:02:45;54411.81;;;-144.73;47.71
73551;BME280;61816;53.582;10.096;2023-02-28T11:07:58;54370.75;;;-144.73;46.07
73551;BME280;61816;53.582;10.096;2023-02-28T11:10:26;54432.31;;;-144.73;45.09
73551;BME280;61816;53.582;10.096;2023-02-28T11:12:55;54444.66;;;-144.73;45.48
73551;BME280;61816;53.582;10.096;2023-02-28T11:15:23;54432.31;;;-144.73;45.64
73551;BME280;61816;53.582;10.096;2023-02-28T11:18:24;54385.13;;;-144.73;45.18
73551;BME280;61816;53.582;10.096;2023-02-28T11:20:54;54428.22;;;-144.73;44.78
73551;BME280;61816;53.582;10.096;2023-02-28T11:23:25;54424.13;;;-144.73;42.18
73551;BME280;61816;53.582;10.096;2023-02-28T11:25:54;54420.00;;;-144.73;43.87
73551;BME280;61816;53.582;10.096;2023-02-28T11:28:33;54428.22;;;-144.73;43.75
73551;BME280;61816;53.582;10.096;2023-02-28T11:36:23;54415.91;;;-144.73;44.73
73551;BME280;61816;53.582;10.096;2023-02-28T11:38:58;54387.19;;;-144.73;42.87
73551;BME280;61816;53.582;10.096;2023-02-28T11:47:29;54387.19;;;-144.73;42.59
73551;BME280;61816;53.582;10.096;2023-02-28T11:50:21;54395.38;;;-144.73;43.43
73551;BME280;61816;53.582;10.096;2023-02-28T11:55:39;54407.69;;;-144.73;39.85
73551;BME280;61816;53.582;10.096;2023-02-28T11:58:26;54415.91;;;-144.73;39.97
73551;BME280;61816;53.582;10.096;2023-02-28T12:01:01;54395.38;;;-144.73;38.55
73551;BME280;61816;53.582;10.096;2023-02-28T12:03:35;54411.81;;;-144.73;38.14
73551;BME280;61816;53.582;10.096;2023-02-28T12:09:02;54399.50;;;-144.73;39.93
73551;BME280;61816;53.582;10.096;2023-02-28T12:11:37;54407.69;;;-144.73;38.87
73551;BME280;61816;53.582;10.096;2023-02-28T12:22:41;54415.91;;;-144.73;38.18
73551;BME280;61816;53.582;10.096;2023-02-28T12:25:40;54389.22;;;-144.73;37.93
73551;BME280;61816;53.582;10.096;2023-02-28T12:28:13;54387.19;;;-144.73;38.52
73551;BME280;61816;53.582;10.096;2023-02-28T12:31:09;54409.75;;;-144.73;37.69
73551;BME280;61816;53.582;10.096;2023-02-28T12:33:37;54387.19;;;-144.73;36.72
73551;BME280;61816;53.582;10.096;2023-02-28T12:36:09;54354.34;;;-144.73;36.51
73551;BME280;61816;53.582;10.096;2023-02-28T12:38:47;54434.38;;;-144.73;36.55
73551;BME280;61816;53.582;10.096;2023-02-28T12:41:19;54432.31;;;-144.73;35.54
73551;BME280;61816;53.582;10.096;2023-02-28T12:43:55;54420.00;;;-144.73;34.63
73551;BME280;61816;53.582;10.096;2023-02-28T12:46:24;54387.19;;;-144.73;34.61
73551;BME280;61816;53.582;10.096;2023-02-28T12:48:56;54391.28;;;-144.73;34.31
73551;BME280;61816;53.582;10.096;2023-02-28T12:51:24;54413.84;;;-144.73;34.41
73551;BME280;61816;53.582;10.096;2023-02-28T12:56:17;54415.91;;;-144.73;34.64
73551;BME280;61816;53.582;10.096;2023-02-28T12:58:48;54391.28;;;-144.73;34.75
73551;BME280;61816;53.582;10.096;2023-02-28T13:07:37;54366.66;;;-144.73;36.56
73551;BME280;61816;53.582;10.096;2023-02-28T13:10:06;54362.53;;;-144.73;35.33
73551;BME280;61816;53.582;10.096;2023-02-28T13:12:33;54393.34;;;-144.73;34.61
73551;BME280;61816;53.582;10.096;2023-02-28T13:15:05;54411.81;;;-144.73;35.50
73551;BME280;61816;53.582;10.096;2023-02-28T13:17:37;54407.69;;;-144.73;34.53
73551;BME280;61816;53.582;10.096;2023-02-28T13:20:04;54424.13;;;-144.73;35.44
73551;BME280;61816;53.582;10.096;2023-02-28T13:22:44;54391.28;;;-144.73;34.66
73551;BME280;61816;53.582;10.096;2023-02-28T13:27:51;54368.69;;;-144.73;35.18
73551;BME280;61816;53.582;10.096;2023-02-28T13:33:30;54383.06;;;-144.73;33.75
73551;BME280;61816;53.582;10.096;2023-02-28T13:38:34;54407.69;;;-144.73;33.38
73551;BME280;61816;53.582;10.096;2023-02-28T13:46:29;54407.69;;;-144.73;33.36
73551;BME280;61816;53.582;10.096;2023-02-28T13:48:55;54428.22;;;-144.73;33.40
73551;BME280;61816;53.582;10.096;2023-02-28T13:51:38;54399.50;;;-144.73;32.50
73551;BME280;61816;53.582;10.096;2023-02-28T13:54:19;54370.75;;;-144.73;32.34
73551;BME280;61816;53.582;10.096;2023-02-28T13:57:04;54428.22;;;-144.73;31.20
73551;BME280;61816;53.582;10.096;2023-02-28T13:59:43;54407.69;;;-144.73;33.66
73551;BME280;61816;53.582;10.096;2023-02-28T14:02:43;54366.66;;;-144.73;33.14
73551;BME280;61816;53.582;10.096;2023-02-28T14:05:17;54407.69;;;-144.73;34.22
73551;BME280;61816;53.582;10.096;2023-02-28T14:07:51;54366.66;;;-144.73;33.42
73551;BME280;61816;53.582;10.096;2023-02-28T14:10:48;54448.75;;;-144.73;32.89
73551;BME280;61816;53.582;10.096;2023-02-28T14:16:10;54399.50;;;-144.73;32.50
73551;BME280;61816;53.582;10.096;2023-02-28T14:18:41;54385.13;;;-144.73;32.33
73551;BME280;61816;53.582;10.096;2023-02-28T14:21:16;54413.84;;;-144.73;31.32
73551;BME280;61816;53.582;10.096;2023-02-28T14:26:46;54407.69;;;-144.73;31.13
73551;BME280;61816;53.582;10.096;2023-02-28T14:29:30;54362.53;;;-144.73;30.60